createdAt,value
2022-11-25T00:00:35.675Z,11.10
2022-11-25T00:03:03.798Z,11.00
2022-11-25T00:05:30.616Z,11.10
2022-11-25T00:07:57.439Z,11.00
2022-11-25T00:10:24.232Z,11.00
2022-11-25T00:12:51.027Z,11.00
2022-11-25T00:15:17.820Z,11.10
2022-11-25T00:17:44.741Z,11.10
2022-11-25T00:20:11.688Z,11.10
2022-11-25T00:22:38.472Z,11.10
2022-11-25T00:25:05.737Z,11.00
2022-11-25T00:27:32.451Z,10.90
2022-11-25T00:29:59.282Z,10.90
2022-11-25T00:32:25.999Z,11.10
2022-11-25T00:34:52.822Z,11.00
2022-11-25T00:37:19.710Z,10.80
2022-11-25T00:39:46.471Z,10.70
2022-11-25T00:42:42.529Z,10.70
2022-11-25T00:45:09.655Z,10.70
2022-11-25T00:47:36.371Z,10.80
2022-11-25T00:50:03.280Z,10.80
2022-11-25T00:52:30.097Z,10.60
2022-11-25T00:54:56.814Z,10.20
2022-11-25T00:57:24.090Z,9.80
2022-11-25T00:59:51.115Z,9.70
2022-11-25T01:02:19.192Z,9.50
2022-11-25T01:04:46.801Z,9.40
2022-11-25T01:07:13.977Z,9.30
2022-11-25T01:09:40.787Z,9.20
2022-11-25T01:12:07.815Z,9.20
2022-11-25T01:14:35.044Z,9.10
2022-11-25T01:17:02.283Z,9.10
2022-11-25T01:19:29.171Z,9.00
2022-11-25T01:21:56.030Z,9.10
2022-11-25T01:24:24.209Z,9.10
2022-11-25T01:26:51.083Z,9.00
2022-11-25T01:29:19.314Z,9.00
2022-11-25T01:31:47.024Z,9.00
2022-11-25T01:34:19.539Z,9.00
2022-11-25T01:36:46.749Z,8.90
2022-11-25T01:39:19.848Z,8.80
2022-11-25T01:41:47.810Z,8.80
2022-11-25T01:44:20.333Z,8.80
2022-11-25T01:47:03.847Z,8.80
2022-11-25T01:49:40.715Z,8.80
2022-11-25T01:52:07.515Z,9.00
2022-11-25T01:54:42.721Z,9.00
2022-11-25T01:57:14.217Z,9.00
2022-11-25T01:59:46.418Z,9.00
2022-11-25T02:02:14.929Z,8.70
2022-11-25T02:04:43.440Z,8.80
2022-11-25T02:07:25.087Z,8.70
2022-11-25T02:09:52.471Z,8.80
2022-11-25T02:12:21.797Z,8.90
2022-11-25T02:14:51.486Z,9.00
2022-11-25T02:17:18.376Z,9.00
2022-11-25T02:20:07.908Z,9.20
2022-11-25T02:22:43.254Z,9.40
2022-11-25T02:25:36.514Z,9.20
2022-11-25T02:28:18.235Z,9.20
2022-11-25T02:30:46.104Z,9.30
2022-11-25T02:33:14.194Z,9.40
2022-11-25T02:35:47.733Z,9.20
2022-11-25T02:38:17.386Z,9.10
2022-11-25T02:40:58.327Z,9.10
2022-11-25T02:43:25.094Z,9.20
2022-11-25T02:45:57.911Z,8.80
2022-11-25T02:48:45.786Z,9.00
2022-11-25T02:51:17.047Z,9.20
2022-11-25T02:53:44.078Z,9.10
2022-11-25T02:56:13.218Z,9.10
2022-11-25T02:58:41.067Z,9.20
2022-11-25T03:01:09.182Z,9.00
2022-11-25T03:03:37.026Z,8.70
2022-11-25T03:06:04.294Z,8.80
2022-11-25T03:08:31.058Z,9.00
2022-11-25T03:10:57.884Z,9.00
2022-11-25T03:13:24.836Z,8.80
2022-11-25T03:15:51.633Z,8.70
2022-11-25T03:18:18.344Z,8.50
2022-11-25T03:20:45.133Z,8.60
2022-11-25T03:23:12.004Z,8.60
2022-11-25T03:25:38.768Z,8.40
2022-11-25T03:28:05.582Z,8.60
2022-11-25T03:30:32.503Z,8.50
2022-11-25T03:32:59.275Z,8.40
2022-11-25T03:35:26.132Z,8.40
2022-11-25T03:37:52.871Z,8.40
2022-11-25T03:40:19.735Z,8.50
2022-11-25T03:42:46.585Z,8.50
2022-11-25T03:45:14.670Z,8.30
2022-11-25T03:48:01.835Z,8.40
2022-11-25T03:50:28.573Z,8.50
2022-11-25T03:52:55.361Z,8.50
2022-11-25T03:55:22.099Z,8.50
2022-11-25T03:57:48.863Z,8.60
2022-11-25T04:00:15.799Z,8.50
2022-11-25T04:02:42.613Z,8.40
2022-11-25T04:05:10.084Z,8.50
2022-11-25T04:07:36.905Z,8.50
2022-11-25T04:10:04.138Z,8.60
2022-11-25T04:12:49.242Z,8.60
2022-11-25T04:15:17.134Z,8.40
2022-11-25T04:17:44.004Z,8.60
2022-11-25T04:20:12.763Z,8.70
2022-11-25T04:22:39.598Z,8.80
2022-11-25T04:25:07.413Z,8.80
2022-11-25T04:27:34.546Z,8.70
2022-11-25T04:30:01.400Z,8.50
2022-11-25T04:32:28.109Z,8.60
2022-11-25T04:34:54.954Z,8.50
2022-11-25T04:37:21.798Z,8.40
2022-11-25T04:39:48.831Z,8.50
2022-11-25T04:42:34.686Z,8.50
2022-11-25T04:45:22.628Z,8.60
2022-11-25T04:47:50.030Z,8.60
2022-11-25T04:50:19.478Z,8.50
2022-11-25T04:52:46.201Z,8.50
2022-11-25T04:55:13.099Z,8.60
2022-11-25T04:57:39.963Z,8.80
2022-11-25T05:00:08.049Z,8.70
2022-11-25T05:02:35.173Z,8.70
2022-11-25T05:05:02.149Z,8.80
2022-11-25T05:07:29.255Z,8.80
2022-11-25T05:09:56.626Z,8.80
2022-11-25T05:12:26.362Z,8.80
2022-11-25T05:14:53.505Z,8.60
2022-11-25T05:17:23.959Z,8.60
2022-11-25T05:19:51.683Z,8.60
2022-11-25T05:22:21.949Z,8.70
2022-11-25T05:24:48.762Z,8.70
2022-11-25T05:27:16.526Z,8.80
2022-11-25T05:29:43.490Z,8.80
2022-11-25T05:32:10.729Z,8.80
2022-11-25T05:34:38.678Z,8.80
2022-11-25T05:37:06.054Z,8.80
2022-11-25T05:39:32.787Z,8.80
2022-11-25T05:41:59.708Z,8.80
2022-11-25T05:44:26.444Z,8.90
2022-11-25T05:46:53.587Z,8.60
2022-11-25T05:49:21.073Z,8.60
2022-11-25T05:51:48.257Z,8.60
2022-11-25T05:54:14.990Z,8.50
2022-11-25T05:56:41.702Z,8.50
2022-11-25T05:59:08.458Z,8.60
2022-11-25T06:01:35.230Z,8.70
2022-11-25T06:04:03.820Z,8.70
2022-11-25T06:06:30.942Z,8.50
2022-11-25T06:08:57.771Z,8.60
2022-11-25T06:11:25.646Z,8.50
2022-11-25T06:13:52.496Z,8.40
2022-11-25T06:16:22.204Z,8.40
2022-11-25T06:18:49.843Z,8.40
2022-11-25T06:21:17.186Z,8.40
2022-11-25T06:23:47.239Z,8.20
2022-11-25T06:26:17.332Z,8.30
2022-11-25T06:28:44.813Z,8.50
2022-11-25T06:31:14.951Z,8.50
2022-11-25T06:33:42.015Z,8.40
2022-11-25T06:36:17.061Z,8.40
2022-11-25T06:38:54.268Z,8.30
2022-11-25T06:41:22.593Z,8.40
2022-11-25T06:43:49.478Z,8.40
2022-11-25T06:46:24.450Z,8.50
2022-11-25T06:48:52.725Z,8.50
2022-11-25T06:51:19.852Z,8.50
2022-11-25T06:53:46.667Z,8.30
2022-11-25T06:56:13.328Z,8.20
2022-11-25T06:58:41.405Z,8.30
2022-11-25T07:01:16.925Z,8.30
2022-11-25T07:03:45.436Z,8.30
2022-11-25T07:06:13.426Z,8.40
2022-11-25T07:08:40.633Z,8.30
2022-11-25T07:11:23.303Z,8.20
2022-11-25T07:13:53.714Z,8.20
2022-11-25T07:16:21.109Z,8.10
2022-11-25T07:18:48.421Z,8.20
2022-11-25T07:21:18.320Z,8.40
2022-11-25T07:23:46.632Z,8.20
2022-11-25T07:26:18.191Z,8.20
2022-11-25T07:28:45.743Z,8.00
2022-11-25T07:31:32.519Z,8.00
2022-11-25T07:34:02.129Z,8.00
2022-11-25T07:36:30.722Z,8.10
2022-11-25T07:38:58.966Z,8.10
2022-11-25T07:41:27.523Z,8.00
2022-11-25T07:43:57.375Z,8.20
2022-11-25T07:46:28.991Z,8.10
2022-11-25T07:48:58.391Z,7.90
2022-11-25T07:51:28.734Z,7.90
2022-11-25T07:53:57.559Z,8.10
2022-11-25T07:56:24.658Z,8.10
2022-11-25T07:58:51.770Z,8.10
2022-11-25T08:01:19.175Z,8.10
2022-11-25T08:03:48.047Z,8.10
2022-11-25T08:06:17.827Z,8.30
2022-11-25T08:08:45.342Z,8.30
2022-11-25T08:11:14.709Z,8.30
2022-11-25T08:13:41.860Z,8.20
2022-11-25T08:16:09.348Z,8.20
2022-11-25T08:18:36.132Z,8.10
2022-11-25T08:21:05.610Z,8.20
2022-11-25T08:23:33.873Z,8.20
2022-11-25T08:26:06.222Z,8.30
2022-11-25T08:28:33.522Z,8.30
2022-11-25T08:31:09.354Z,8.30
2022-11-25T08:33:37.545Z,8.20
2022-11-25T08:36:05.459Z,8.30
2022-11-25T08:38:33.573Z,8.30
2022-11-25T08:41:01.026Z,8.30
2022-11-25T08:43:29.748Z,8.30
2022-11-25T08:45:57.056Z,8.30
2022-11-25T08:48:24.053Z,8.30
2022-11-25T08:50:53.537Z,8.50
2022-11-25T08:53:21.882Z,8.50
2022-11-25T08:55:49.556Z,8.50
2022-11-25T08:58:16.734Z,8.50
2022-11-25T09:00:44.848Z,8.50
2022-11-25T09:03:12.534Z,8.50
2022-11-25T09:05:41.660Z,8.50
2022-11-25T09:08:09.014Z,8.50
2022-11-25T09:10:37.411Z,8.40
2022-11-25T09:13:04.422Z,8.40
2022-11-25T09:15:32.774Z,8.30
2022-11-25T09:18:05.148Z,8.40
2022-11-25T09:20:33.268Z,8.40
2022-11-25T09:23:01.286Z,8.50
2022-11-25T09:25:29.048Z,8.50
2022-11-25T09:27:56.814Z,8.50
2022-11-25T09:30:24.882Z,8.50
2022-11-25T09:32:53.578Z,8.60
2022-11-25T09:35:20.519Z,8.60
2022-11-25T09:37:47.590Z,8.60
2022-11-25T09:40:19.553Z,8.60
2022-11-25T09:43:39.367Z,8.60
2022-11-25T09:46:42.804Z,8.60
2022-11-25T09:49:30.416Z,8.70
2022-11-25T09:52:20.273Z,8.70
2022-11-25T09:55:10.823Z,9.00
2022-11-25T09:58:00.543Z,8.90
2022-11-25T10:00:38.672Z,8.90
2022-11-25T10:03:46.622Z,8.90
2022-11-25T10:06:21.724Z,9.00
2022-11-25T10:08:52.009Z,9.20
2022-11-25T10:11:24.175Z,9.40
2022-11-25T10:13:58.128Z,9.40
2022-11-25T10:16:24.927Z,9.50
2022-11-25T10:19:15.793Z,9.40
2022-11-25T10:21:42.607Z,9.50
2022-11-25T10:24:15.304Z,9.40
2022-11-25T10:26:45.243Z,9.50
2022-11-25T10:29:25.149Z,9.60
2022-11-25T10:32:04.316Z,9.60
2022-11-25T10:34:42.285Z,9.60
2022-11-25T10:37:33.946Z,9.80
2022-11-25T10:40:00.666Z,9.80
2022-11-25T10:42:28.839Z,9.90
2022-11-25T10:44:55.850Z,9.90
2022-11-25T10:48:10.150Z,9.90
2022-11-25T10:51:02.846Z,9.90
2022-11-25T10:53:30.830Z,9.90
2022-11-25T10:56:17.476Z,9.90
2022-11-25T10:58:44.740Z,10.00
2022-11-25T11:01:18.614Z,10.10
2022-11-25T11:03:51.077Z,10.10
2022-11-25T11:06:32.561Z,10.10
2022-11-25T11:08:59.351Z,10.00
2022-11-25T11:11:26.395Z,10.10
2022-11-25T11:14:08.383Z,10.00
2022-11-25T11:16:45.531Z,10.10
2022-11-25T11:19:29.813Z,10.10
2022-11-25T11:21:58.402Z,10.10
2022-11-25T11:24:36.012Z,10.10
2022-11-25T11:27:23.335Z,10.10
2022-11-25T11:30:15.195Z,10.20
2022-11-25T11:32:55.412Z,10.20
2022-11-25T11:35:41.939Z,10.20
2022-11-25T11:38:20.128Z,10.20
2022-11-25T11:41:18.524Z,10.10
2022-11-25T11:44:21.557Z,10.10
2022-11-25T11:47:08.371Z,10.20
2022-11-25T11:50:13.593Z,10.30
2022-11-25T11:52:58.612Z,10.40
2022-11-25T11:55:55.973Z,10.40
2022-11-25T11:59:05.344Z,10.40
2022-11-25T12:01:51.293Z,10.40
2022-11-25T12:04:41.655Z,10.40
2022-11-25T12:07:18.367Z,10.40
2022-11-25T12:09:59.544Z,10.50
2022-11-25T12:12:35.543Z,10.50
2022-11-25T12:15:15.786Z,10.40
2022-11-25T12:17:53.267Z,10.30
2022-11-25T12:20:55.623Z,10.40
2022-11-25T12:23:40.595Z,10.40
2022-11-25T12:26:33.541Z,10.40
2022-11-25T12:29:05.303Z,10.50
2022-11-25T12:31:40.165Z,10.50
2022-11-25T12:34:46.201Z,10.40
2022-11-25T12:37:21.312Z,10.40
2022-11-25T12:40:05.157Z,10.40
2022-11-25T12:42:33.200Z,10.40
2022-11-25T12:45:05.568Z,10.40
2022-11-25T12:47:32.635Z,10.50
2022-11-25T12:49:59.850Z,10.50
2022-11-25T12:53:00.321Z,10.50
2022-11-25T12:55:28.839Z,10.50
2022-11-25T12:58:17.320Z,10.50
2022-11-25T13:00:50.167Z,10.60
2022-11-25T13:03:37.879Z,10.60
2022-11-25T13:06:23.029Z,10.60
2022-11-25T13:09:27.574Z,10.60
2022-11-25T13:12:20.859Z,10.50
2022-11-25T13:15:00.024Z,10.50
2022-11-25T13:17:29.594Z,10.60
2022-11-25T13:20:27.521Z,10.60
2022-11-25T13:23:07.979Z,10.70
2022-11-25T13:25:37.540Z,10.70
2022-11-25T13:28:32.455Z,10.60
2022-11-25T13:31:14.254Z,10.70
2022-11-25T13:33:44.364Z,10.70
2022-11-25T13:36:25.196Z,10.70
2022-11-25T13:38:51.856Z,10.80
2022-11-25T13:41:25.498Z,10.60
2022-11-25T13:43:52.095Z,10.60
2022-11-25T13:46:37.765Z,10.70
2022-11-25T13:49:24.456Z,10.70
2022-11-25T13:52:26.334Z,10.70
2022-11-25T13:54:55.455Z,10.70
2022-11-25T13:57:25.177Z,10.80
2022-11-25T13:59:55.985Z,10.80
2022-11-25T14:02:35.888Z,10.80
2022-11-25T14:05:20.468Z,10.70
2022-11-25T14:08:18.117Z,10.70
2022-11-25T14:10:54.780Z,10.80
2022-11-25T14:13:34.514Z,10.70
2022-11-25T14:16:23.835Z,10.70
2022-11-25T14:19:49.444Z,10.60
2022-11-25T14:22:31.851Z,10.60
2022-11-25T14:25:27.324Z,10.70
2022-11-25T14:28:26.571Z,10.70
2022-11-25T14:30:59.518Z,10.60
2022-11-25T14:33:34.434Z,10.50
2022-11-25T14:36:09.336Z,10.70
2022-11-25T14:38:45.025Z,10.70
2022-11-25T14:41:18.742Z,10.70
2022-11-25T14:43:51.752Z,10.80
2022-11-25T14:46:21.542Z,10.80
2022-11-25T14:49:00.222Z,10.60
2022-11-25T14:51:38.681Z,10.50
2022-11-25T14:54:09.805Z,10.40
2022-11-25T14:56:37.574Z,10.60
2022-11-25T14:59:07.947Z,10.60
2022-11-25T15:01:36.884Z,10.50
2022-11-25T15:04:12.049Z,10.50
2022-11-25T15:06:52.297Z,10.50
2022-11-25T15:09:24.056Z,10.60
2022-11-25T15:11:57.484Z,10.50
2022-11-25T15:14:34.449Z,10.40
2022-11-25T15:17:07.762Z,10.40
2022-11-25T15:19:37.021Z,10.40
2022-11-25T15:22:22.441Z,10.40
2022-11-25T15:24:55.418Z,10.30
2022-11-25T15:27:25.798Z,10.30
2022-11-25T15:29:54.292Z,10.20
2022-11-25T15:32:27.032Z,10.30
2022-11-25T15:34:56.623Z,10.30
2022-11-25T15:37:24.154Z,10.40
2022-11-25T15:40:11.932Z,10.30
2022-11-25T15:42:42.255Z,10.30
2022-11-25T15:45:18.050Z,10.30
2022-11-25T15:47:45.452Z,10.40
2022-11-25T15:50:26.435Z,10.40
2022-11-25T15:52:58.681Z,10.40
2022-11-25T15:55:37.832Z,10.20
2022-11-25T15:58:18.771Z,10.10
2022-11-25T16:01:20.639Z,10.00
2022-11-25T16:03:49.378Z,10.20
2022-11-25T16:06:26.926Z,10.10
2022-11-25T16:08:54.732Z,10.20
2022-11-25T16:11:23.315Z,10.20
2022-11-25T16:13:51.549Z,10.40
2022-11-25T16:16:29.511Z,10.30
2022-11-25T16:19:02.361Z,10.30
2022-11-25T16:21:40.044Z,10.10
2022-11-25T16:24:06.785Z,10.00
2022-11-25T16:26:58.170Z,10.10
2022-11-25T16:29:24.997Z,10.20
2022-11-25T16:31:51.724Z,10.00
2022-11-25T16:34:21.000Z,9.90
2022-11-25T16:36:47.852Z,9.80
2022-11-25T16:39:14.579Z,9.70
2022-11-25T16:41:42.545Z,10.00
2022-11-25T16:44:18.640Z,10.10
2022-11-25T16:46:45.879Z,10.10
2022-11-25T16:49:16.753Z,9.80
2022-11-25T16:51:44.019Z,9.70
2022-11-25T16:54:12.311Z,10.00
2022-11-25T16:56:41.622Z,10.00
2022-11-25T16:59:19.566Z,9.90
2022-11-25T17:01:47.236Z,9.80
2022-11-25T17:04:18.510Z,9.80
2022-11-25T17:06:54.105Z,9.70
2022-11-25T17:09:32.453Z,9.50
2022-11-25T17:11:59.222Z,9.50
2022-11-25T17:14:31.098Z,9.50
2022-11-25T17:16:59.615Z,9.60
2022-11-25T17:19:26.765Z,9.40
2022-11-25T17:21:53.569Z,9.30
2022-11-25T17:24:23.300Z,9.30
2022-11-25T17:27:03.077Z,9.40
2022-11-25T17:29:35.595Z,9.50
2022-11-25T17:32:02.994Z,9.50
2022-11-25T17:34:31.727Z,9.50
2022-11-25T17:37:00.435Z,9.40
2022-11-25T17:39:27.210Z,9.50
2022-11-25T17:41:53.932Z,9.50
2022-11-25T17:44:28.567Z,9.40
2022-11-25T17:46:58.731Z,9.40
2022-11-25T17:49:25.844Z,9.30
2022-11-25T17:51:53.094Z,9.20
2022-11-25T17:54:19.935Z,9.10
2022-11-25T17:56:51.983Z,9.30
2022-11-25T17:59:33.592Z,9.40
2022-11-25T18:02:00.682Z,9.30
2022-11-25T18:04:35.517Z,9.00
2022-11-25T18:07:02.438Z,9.10
2022-11-25T18:09:29.204Z,9.00
2022-11-25T18:11:59.460Z,9.00
2022-11-25T18:14:30.306Z,8.90
2022-11-25T18:16:59.168Z,8.80
2022-11-25T18:19:26.179Z,8.90
2022-11-25T18:21:53.846Z,9.00
2022-11-25T18:24:20.640Z,9.00
2022-11-25T18:26:49.823Z,9.10
2022-11-25T18:29:26.124Z,8.90
2022-11-25T18:31:55.856Z,8.80
2022-11-25T18:34:23.975Z,8.90
2022-11-25T18:36:51.745Z,8.90
2022-11-25T18:39:21.675Z,8.90
2022-11-25T18:41:49.855Z,8.80
2022-11-25T18:44:26.247Z,8.70
2022-11-25T18:46:54.176Z,8.50
2022-11-25T18:49:21.627Z,8.50
2022-11-25T18:51:48.477Z,8.40
2022-11-25T18:54:15.396Z,8.40
2022-11-25T18:56:43.267Z,8.40
2022-11-25T18:59:16.492Z,8.40
2022-11-25T19:01:49.386Z,8.30
2022-11-25T19:04:17.433Z,8.30
2022-11-25T19:06:44.535Z,8.20
2022-11-25T19:09:12.338Z,8.30
2022-11-25T19:11:43.323Z,8.20
2022-11-25T19:14:13.213Z,8.20
2022-11-25T19:16:40.725Z,8.10
2022-11-25T19:19:09.988Z,8.00
2022-11-25T19:21:36.702Z,8.00
2022-11-25T19:24:12.230Z,7.90
2022-11-25T19:26:43.092Z,7.90
2022-11-25T19:29:17.278Z,7.80
2022-11-25T19:31:44.245Z,7.90
2022-11-25T19:34:25.399Z,7.80
2022-11-25T19:36:52.097Z,8.00
2022-11-25T19:39:18.940Z,8.00
2022-11-25T19:41:45.786Z,7.90
2022-11-25T19:44:12.520Z,7.90
2022-11-25T19:47:13.149Z,7.80
2022-11-25T19:49:30.468Z,7.70
2022-11-25T19:51:57.184Z,7.70
2022-11-25T19:54:23.936Z,7.40
2022-11-25T19:56:50.715Z,7.30
2022-11-25T19:59:17.555Z,7.10
2022-11-25T20:01:45.643Z,7.00
2022-11-25T20:04:20.242Z,6.90
2022-11-25T20:06:48.731Z,6.90
2022-11-25T20:09:15.581Z,6.80
2022-11-25T20:11:42.551Z,6.80
2022-11-25T20:14:09.309Z,6.70
2022-11-25T20:16:39.802Z,6.70
2022-11-25T20:19:14.336Z,6.60
2022-11-25T20:21:41.355Z,6.70
2022-11-25T20:24:19.048Z,6.60
2022-11-25T20:26:48.539Z,6.60
2022-11-25T20:29:24.543Z,6.40
2022-11-25T20:31:55.957Z,6.60
2022-11-25T20:34:22.832Z,6.60
2022-11-25T20:36:49.630Z,6.60
2022-11-25T20:39:19.056Z,6.60
2022-11-25T20:41:51.499Z,6.50
2022-11-25T20:44:18.892Z,6.50
2022-11-25T20:46:45.658Z,6.60
2022-11-25T20:49:29.100Z,6.50
2022-11-25T20:51:56.604Z,6.50
2022-11-25T20:54:24.651Z,6.60
2022-11-25T20:56:51.442Z,6.50
2022-11-25T20:59:23.693Z,6.50
2022-11-25T21:01:51.871Z,6.60
2022-11-25T21:04:18.821Z,6.50
2022-11-25T21:06:45.906Z,6.60
2022-11-25T21:09:19.571Z,6.60
2022-11-25T21:11:47.454Z,6.50
2022-11-25T21:14:16.409Z,6.50
2022-11-25T21:16:43.428Z,6.30
2022-11-25T21:19:10.451Z,6.20
2022-11-25T21:21:40.643Z,6.30
2022-11-25T21:24:27.431Z,6.20
2022-11-25T21:26:56.917Z,6.20
2022-11-25T21:29:23.971Z,6.20
2022-11-25T21:31:50.835Z,6.20
2022-11-25T21:34:17.709Z,6.20
2022-11-25T21:36:46.706Z,6.30
2022-11-25T21:39:16.303Z,6.40
2022-11-25T21:41:43.179Z,6.50
2022-11-25T21:44:18.531Z,6.60
2022-11-25T21:46:45.361Z,6.70
2022-11-25T21:49:12.250Z,6.70
2022-11-25T21:51:38.991Z,6.80
2022-11-25T21:54:05.798Z,6.80
2022-11-25T21:56:34.543Z,6.70
2022-11-25T21:59:03.135Z,6.90
2022-11-25T22:01:30.307Z,6.90
2022-11-25T22:03:57.261Z,6.80
2022-11-25T22:06:28.690Z,6.90
2022-11-25T22:08:56.734Z,7.00
2022-11-25T22:11:39.437Z,7.00
2022-11-25T22:14:20.604Z,7.30
2022-11-25T22:16:47.559Z,7.00
2022-11-25T22:19:26.454Z,6.90
2022-11-25T22:21:53.625Z,6.90
2022-11-25T22:24:21.768Z,6.90
2022-11-25T22:26:56.045Z,6.80
2022-11-25T22:29:30.763Z,6.80
2022-11-25T22:31:57.618Z,6.60
2022-11-25T22:34:25.171Z,6.70
2022-11-25T22:36:52.503Z,6.60
2022-11-25T22:39:24.621Z,6.50
2022-11-25T22:42:05.340Z,6.40
2022-11-25T22:44:32.004Z,6.30
2022-11-25T22:46:59.199Z,6.20
2022-11-25T22:49:40.124Z,6.10
2022-11-25T22:52:26.077Z,6.10
2022-11-25T22:54:52.946Z,6.10
2022-11-25T22:57:20.284Z,6.10
2022-11-25T22:59:47.125Z,6.40
2022-11-25T23:02:23.737Z,6.50
2022-11-25T23:04:55.850Z,6.50
2022-11-25T23:07:24.312Z,6.10
2022-11-25T23:09:51.497Z,6.00
2022-11-25T23:12:19.198Z,6.00
2022-11-25T23:14:46.401Z,5.80
2022-11-25T23:17:20.759Z,5.80
2022-11-25T23:19:48.648Z,5.90
2022-11-25T23:22:15.709Z,5.80
2022-11-25T23:24:47.602Z,5.80
2022-11-25T23:27:15.380Z,5.80
2022-11-25T23:29:42.291Z,5.60
2022-11-25T23:32:18.572Z,5.60
2022-11-25T23:34:45.557Z,5.50
2022-11-25T23:37:13.824Z,5.60
2022-11-25T23:39:41.058Z,5.60
2022-11-25T23:42:16.866Z,5.70
2022-11-25T23:44:43.751Z,5.50
2022-11-25T23:47:17.357Z,5.50
2022-11-25T23:49:48.321Z,5.40
2022-11-25T23:52:22.892Z,5.30
2022-11-25T23:54:51.822Z,5.30
2022-11-25T23:57:24.361Z,5.40
2022-11-25T23:59:52.105Z,5.40
